createdAt,value
2019-02-21T00:01:33.380Z,35.37
2019-02-21T00:04:03.458Z,36.10
2019-02-21T00:06:33.544Z,38.40
2019-02-21T00:09:04.895Z,37.57
2019-02-21T00:11:34.899Z,35.57
2019-02-21T00:14:04.879Z,32.73
2019-02-21T00:16:36.352Z,40.67
2019-02-21T00:19:06.323Z,39.30
2019-02-21T00:21:36.228Z,43.53
2019-02-21T00:24:06.265Z,33.53
2019-02-21T00:26:36.301Z,39.47
2019-02-21T00:29:06.401Z,37.20
2019-02-21T00:31:36.540Z,37.27
2019-02-21T00:34:06.491Z,35.20
2019-02-21T00:36:36.423Z,45.60
2019-02-21T00:39:07.099Z,40.63
2019-02-21T00:41:37.010Z,31.83
2019-02-21T00:44:07.027Z,33.70
2019-02-21T00:46:37.019Z,45.83
2019-02-21T00:49:07.039Z,37.47
2019-02-21T00:51:37.045Z,36.20
2019-02-21T00:54:07.027Z,41.67
2019-02-21T00:56:36.956Z,40.90
2019-02-21T00:59:07.063Z,42.63
2019-02-21T01:01:37.101Z,37.60
2019-02-21T01:04:07.271Z,35.63
2019-02-21T01:06:37.182Z,35.23
2019-02-21T01:09:07.282Z,33.90
2019-02-21T01:11:37.362Z,34.50
2019-02-21T01:14:07.825Z,32.10
2019-02-21T01:16:37.808Z,31.30
2019-02-21T01:19:07.835Z,28.13
2019-02-21T01:21:39.726Z,30.73
2019-02-21T01:24:09.480Z,25.53
2019-02-21T01:26:39.399Z,26.07
2019-02-21T01:29:09.389Z,23.73
2019-02-21T01:31:39.330Z,25.53
2019-02-21T01:34:09.259Z,32.47
2019-02-21T01:36:39.277Z,30.30
2019-02-21T01:39:09.364Z,26.43
2019-02-21T01:41:39.374Z,35.07
2019-02-21T01:44:09.394Z,27.37
2019-02-21T01:46:39.417Z,30.30
2019-02-21T01:49:09.611Z,35.97
2019-02-21T01:51:39.523Z,26.13
2019-02-21T01:54:09.725Z,27.03
2019-02-21T01:56:39.712Z,29.60
2019-02-21T01:59:09.716Z,26.77
2019-02-21T02:01:39.655Z,25.57
2019-02-21T02:04:09.614Z,25.47
2019-02-21T02:06:39.744Z,32.70
2019-02-21T02:09:12.387Z,26.63
2019-02-21T02:11:42.312Z,28.73
2019-02-21T02:14:12.301Z,28.83
2019-02-21T02:16:42.401Z,30.60
2019-02-21T02:19:12.395Z,28.50
2019-02-21T02:21:42.297Z,31.90
2019-02-21T02:24:14.738Z,25.90
2019-02-21T02:26:44.162Z,30.53
2019-02-21T02:29:14.153Z,30.47
2019-02-21T02:31:44.092Z,33.70
2019-02-21T02:34:14.117Z,30.50
2019-02-21T02:36:44.041Z,25.70
2019-02-21T02:39:14.234Z,27.67
2019-02-21T02:41:44.149Z,29.30
2019-02-21T02:44:14.182Z,35.90
2019-02-21T02:46:44.138Z,37.83
2019-02-21T02:49:14.069Z,36.90
2019-02-21T02:51:44.025Z,36.13
2019-02-21T02:54:13.933Z,35.37
2019-02-21T02:56:43.927Z,34.10
2019-02-21T02:59:13.832Z,29.80
2019-02-21T03:01:43.775Z,34.07
2019-02-21T03:04:13.714Z,34.47
2019-02-21T03:06:43.680Z,38.23
2019-02-21T03:09:13.749Z,31.00
2019-02-21T03:11:43.762Z,33.67
2019-02-21T03:14:13.685Z,29.03
2019-02-21T03:16:43.696Z,36.77
2019-02-21T03:19:13.611Z,30.50
2019-02-21T03:21:43.608Z,32.70
2019-02-21T03:24:13.805Z,35.50
2019-02-21T03:26:43.853Z,36.90
2019-02-21T03:29:13.824Z,33.90
2019-02-21T03:31:54.409Z,34.33
2019-02-21T03:34:15.304Z,35.63
2019-02-21T03:36:45.215Z,33.70
2019-02-21T03:39:15.225Z,38.00
2019-02-21T03:41:45.199Z,44.63
2019-02-21T03:44:15.042Z,33.10
2019-02-21T03:46:45.048Z,29.87
2019-02-21T03:49:14.979Z,35.50
2019-02-21T03:51:44.975Z,36.43
2019-02-21T03:54:14.892Z,39.03
2019-02-21T03:56:44.904Z,31.57
2019-02-21T03:59:14.804Z,40.73
2019-02-21T04:01:44.905Z,31.27
2019-02-21T04:04:14.882Z,38.90
2019-02-21T04:06:44.798Z,41.00
2019-02-21T04:09:14.784Z,35.00
2019-02-21T04:11:44.704Z,41.43
2019-02-21T04:14:14.860Z,39.30
2019-02-21T04:16:44.873Z,34.80
2019-02-21T04:19:14.837Z,33.77
2019-02-21T04:21:44.828Z,40.87
2019-02-21T04:24:14.774Z,35.53
2019-02-21T04:26:44.707Z,32.87
2019-02-21T04:29:14.675Z,37.67
2019-02-21T04:31:44.618Z,45.57
2019-02-21T04:34:14.630Z,32.27
2019-02-21T04:36:44.568Z,36.43
2019-02-21T04:39:14.484Z,36.10
2019-02-21T04:41:44.429Z,36.83
2019-02-21T04:44:14.336Z,36.97
2019-02-21T04:46:44.304Z,39.50
2019-02-21T04:49:14.202Z,33.17
2019-02-21T04:51:44.125Z,34.50
2019-02-21T04:54:14.204Z,32.70
2019-02-21T04:56:44.139Z,41.40
2019-02-21T04:59:14.055Z,40.17
2019-02-21T05:01:43.979Z,36.37
2019-02-21T05:04:13.894Z,34.70
2019-02-21T05:06:43.829Z,42.90
2019-02-21T05:09:13.824Z,40.93
2019-02-21T05:11:43.753Z,39.00
2019-02-21T05:14:13.652Z,40.13
2019-02-21T05:16:44.687Z,33.93
2019-02-21T05:19:14.830Z,38.07
2019-02-21T05:21:44.955Z,34.80
2019-02-21T05:24:14.907Z,36.17
2019-02-21T05:26:48.673Z,44.07
2019-02-21T05:29:18.593Z,43.53
2019-02-21T05:32:23.040Z,40.40
2019-02-21T05:34:59.210Z,43.30
2019-02-21T05:37:54.310Z,38.10
2019-02-21T05:40:46.096Z,37.50
2019-02-21T05:43:39.052Z,40.07
2019-02-21T05:46:26.267Z,35.80
2019-02-21T05:49:18.407Z,35.30
2019-02-21T05:51:53.227Z,40.70
2019-02-21T05:54:52.661Z,35.40
2019-02-21T05:57:38.277Z,39.93
2019-02-21T06:00:26.180Z,40.27
2019-02-21T06:03:03.177Z,39.20
2019-02-21T06:05:58.489Z,42.23
2019-02-21T06:08:53.315Z,42.53
2019-02-21T06:11:31.060Z,39.73
2019-02-21T06:14:38.428Z,40.87
2019-02-21T06:17:36.238Z,33.93
2019-02-21T06:20:23.788Z,43.33
2019-02-21T06:23:27.800Z,60.97
2019-02-21T06:26:16.909Z,36.47
2019-02-21T06:28:53.486Z,38.67
2019-02-21T06:31:23.324Z,40.23
2019-02-21T06:33:53.261Z,44.83
2019-02-21T06:36:23.169Z,43.10
2019-02-21T06:38:53.178Z,44.70
2019-02-21T06:41:23.384Z,41.20
2019-02-21T06:43:53.306Z,54.67
2019-02-21T06:46:23.261Z,46.53
2019-02-21T06:48:53.201Z,45.00
2019-02-21T06:51:23.096Z,42.33
2019-02-21T06:53:53.303Z,45.60
2019-02-21T06:56:23.303Z,37.30
2019-02-21T06:58:53.239Z,37.47
2019-02-21T07:01:28.958Z,42.67
2019-02-21T07:03:56.861Z,34.80
2019-02-21T07:06:31.998Z,37.07
2019-02-21T07:09:00.041Z,39.80
2019-02-21T07:11:30.113Z,37.67
2019-02-21T07:14:00.066Z,39.73
2019-02-21T07:16:30.006Z,40.00
2019-02-21T07:18:59.936Z,32.57
2019-02-21T07:21:29.845Z,36.90
2019-02-21T07:23:59.887Z,44.00
2019-02-21T07:26:32.292Z,36.43
2019-02-21T07:29:02.245Z,43.63
2019-02-21T07:31:32.770Z,43.33
2019-02-21T07:34:02.797Z,40.40
2019-02-21T07:36:32.726Z,37.77
2019-02-21T07:39:16.526Z,43.77
2019-02-21T07:41:35.462Z,43.33
2019-02-21T07:44:12.055Z,48.33
2019-02-21T07:46:36.987Z,37.73
2019-02-21T07:49:11.444Z,33.53
2019-02-21T07:51:43.341Z,40.70
2019-02-21T07:54:15.213Z,39.10
2019-02-21T07:56:45.443Z,37.57
2019-02-21T07:59:15.372Z,38.30
2019-02-21T08:01:45.364Z,39.37
2019-02-21T08:04:15.243Z,40.60
2019-02-21T08:06:45.240Z,39.90
2019-02-21T08:09:15.205Z,37.10
2019-02-21T08:11:45.205Z,44.07
2019-02-21T08:14:16.151Z,38.53
2019-02-21T08:16:46.480Z,34.90
2019-02-21T08:19:16.509Z,38.40
2019-02-21T08:21:46.637Z,40.00
2019-02-21T08:24:16.735Z,33.20
2019-02-21T08:26:46.913Z,36.47
2019-02-21T08:29:16.985Z,42.40
2019-02-21T08:31:47.000Z,39.57
2019-02-21T08:34:20.904Z,36.97
2019-02-21T08:36:50.841Z,36.97
2019-02-21T08:39:20.733Z,40.13
2019-02-21T08:41:50.736Z,38.30
2019-02-21T08:44:20.643Z,41.93
2019-02-21T08:46:53.313Z,41.80
2019-02-21T08:49:22.095Z,37.53
2019-02-21T08:51:52.029Z,37.90
2019-02-21T08:54:21.970Z,40.33
2019-02-21T08:56:51.965Z,45.50
2019-02-21T08:59:21.879Z,36.77
2019-02-21T09:01:51.860Z,41.63
2019-02-21T09:04:27.302Z,42.17
2019-02-21T09:06:53.583Z,45.53
2019-02-21T09:09:23.478Z,38.90
2019-02-21T09:11:53.941Z,45.63
2019-02-21T09:14:23.629Z,40.37
2019-02-21T09:16:53.552Z,33.87
2019-02-21T09:19:23.586Z,39.63
2019-02-21T09:21:53.676Z,42.07
2019-02-21T09:24:37.756Z,39.27
2019-02-21T09:26:57.362Z,38.10
2019-02-21T09:29:26.828Z,39.90
2019-02-21T09:31:56.768Z,38.73
2019-02-21T09:34:26.772Z,47.10
2019-02-21T09:36:56.677Z,36.50
2019-02-21T09:39:27.561Z,36.63
2019-02-21T09:41:57.487Z,37.30
2019-02-21T09:44:27.743Z,41.57
2019-02-21T09:46:57.663Z,52.63
2019-02-21T09:49:27.811Z,41.17
2019-02-21T09:51:57.760Z,39.47
2019-02-21T09:54:27.679Z,31.63
2019-02-21T09:56:57.635Z,38.17
2019-02-21T09:59:28.855Z,43.07
2019-02-21T10:01:58.933Z,41.23
2019-02-21T10:04:32.219Z,42.10
2019-02-21T10:07:00.466Z,39.40
2019-02-21T10:09:30.360Z,40.90
2019-02-21T10:12:00.371Z,34.23
2019-02-21T10:14:30.280Z,33.80
2019-02-21T10:17:00.215Z,38.90
2019-02-21T10:19:30.283Z,35.67
2019-02-21T10:22:00.226Z,37.13
2019-02-21T10:24:30.227Z,35.67
2019-02-21T10:27:00.156Z,40.43
2019-02-21T10:29:30.148Z,37.13
2019-02-21T10:32:00.160Z,35.07
2019-02-21T10:34:43.462Z,35.50
2019-02-21T10:37:13.729Z,32.80
2019-02-21T10:39:43.671Z,33.30
2019-02-21T10:42:13.671Z,35.40
2019-02-21T10:44:43.719Z,31.60
2019-02-21T10:47:13.737Z,32.30
2019-02-21T10:49:43.685Z,40.77
2019-02-21T10:52:13.613Z,32.63
2019-02-21T10:54:43.610Z,34.27
2019-02-21T10:57:13.619Z,53.77
2019-02-21T10:59:46.688Z,31.10
2019-02-21T11:02:15.187Z,27.20
2019-02-21T11:04:54.430Z,25.87
2019-02-21T11:07:16.650Z,36.20
2019-02-21T11:09:46.636Z,36.63
2019-02-21T11:12:16.600Z,29.40
2019-02-21T11:14:47.822Z,31.40
2019-02-21T11:17:17.893Z,27.73
2019-02-21T11:19:47.837Z,28.03
2019-02-21T11:22:17.855Z,27.93
2019-02-21T11:24:47.885Z,27.57
2019-02-21T11:27:17.823Z,32.83
2019-02-21T11:29:47.844Z,28.93
2019-02-21T11:32:17.824Z,28.60
2019-02-21T11:34:47.802Z,26.50
2019-02-21T11:37:17.733Z,29.60
2019-02-21T11:39:47.850Z,22.90
2019-02-21T11:42:17.756Z,28.13
2019-02-21T11:44:47.763Z,27.40
2019-02-21T11:47:17.683Z,24.40
2019-02-21T11:49:47.673Z,24.40
2019-02-21T11:52:17.583Z,25.70
2019-02-21T11:54:47.517Z,68.20
2019-02-21T11:57:17.473Z,42.13
2019-02-21T11:59:47.550Z,30.30
2019-02-21T12:02:17.528Z,23.10
2019-02-21T12:04:47.479Z,29.30
2019-02-21T12:07:17.469Z,26.10
2019-02-21T12:09:47.414Z,26.73
2019-02-21T12:12:17.427Z,24.07
2019-02-21T12:14:47.402Z,27.93
2019-02-21T12:17:17.408Z,37.90
2019-02-21T12:19:47.396Z,31.27
2019-02-21T12:22:17.386Z,33.90
2019-02-21T12:24:47.470Z,47.13
2019-02-21T12:27:17.386Z,29.53
2019-02-21T12:29:47.421Z,34.43
2019-02-21T12:32:17.506Z,36.73
2019-02-21T12:34:47.441Z,35.73
2019-02-21T12:37:17.521Z,33.27
2019-02-21T12:39:47.471Z,33.60
2019-02-21T12:42:17.655Z,39.40
2019-02-21T12:44:47.941Z,33.20
2019-02-21T12:47:18.149Z,39.10
2019-02-21T12:49:48.221Z,36.10
2019-02-21T12:52:18.269Z,35.90
2019-02-21T12:54:48.193Z,36.90
2019-02-21T12:57:18.183Z,34.47
2019-02-21T12:59:48.200Z,52.50
2019-02-21T13:02:18.207Z,39.40
2019-02-21T13:04:48.290Z,41.77
2019-02-21T13:07:18.300Z,41.20
2019-02-21T13:09:48.260Z,37.53
2019-02-21T13:12:18.279Z,39.43
2019-02-21T13:14:48.228Z,42.10
2019-02-21T13:17:18.302Z,42.73
2019-02-21T13:19:48.303Z,40.07
2019-02-21T13:22:18.230Z,42.30
2019-02-21T13:24:48.325Z,36.90
2019-02-21T13:27:18.332Z,37.37
2019-02-21T13:29:48.359Z,35.60
2019-02-21T13:32:18.338Z,36.10
2019-02-21T13:34:48.383Z,39.10
2019-02-21T13:37:28.121Z,42.73
2019-02-21T13:39:50.056Z,37.50
2019-02-21T13:42:19.971Z,40.30
2019-02-21T13:44:49.881Z,37.53
2019-02-21T13:47:19.899Z,35.87
2019-02-21T13:49:49.908Z,37.67
2019-02-21T13:52:19.853Z,39.77
2019-02-21T13:54:49.811Z,40.27
2019-02-21T13:57:19.741Z,38.73
2019-02-21T13:59:49.660Z,36.10
2019-02-21T14:02:19.568Z,42.70
2019-02-21T14:04:49.539Z,38.17
2019-02-21T14:07:19.451Z,34.33
2019-02-21T14:09:49.426Z,35.20
2019-02-21T14:12:19.465Z,34.63
2019-02-21T14:14:49.493Z,39.63
2019-02-21T14:17:19.429Z,37.20
2019-02-21T14:19:49.323Z,44.83
2019-02-21T14:22:19.342Z,36.40
2019-02-21T14:24:49.311Z,38.03
2019-02-21T14:27:19.352Z,44.20
2019-02-21T14:29:49.279Z,37.33
2019-02-21T14:32:19.968Z,34.40
2019-02-21T14:34:49.820Z,45.97
2019-02-21T14:37:19.802Z,35.80
2019-02-21T14:39:49.720Z,39.37
2019-02-21T14:42:19.818Z,40.07
2019-02-21T14:44:49.800Z,43.63
2019-02-21T14:47:19.827Z,42.53
2019-02-21T14:49:50.098Z,43.70
2019-02-21T14:52:20.353Z,37.93
2019-02-21T14:54:50.351Z,44.83
2019-02-21T14:57:20.390Z,44.07
2019-02-21T14:59:50.469Z,47.40
2019-02-21T15:02:20.527Z,47.07
2019-02-21T15:04:50.526Z,42.10
2019-02-21T15:07:20.458Z,42.17
2019-02-21T15:09:50.394Z,47.87
2019-02-21T15:12:20.487Z,46.67
2019-02-21T15:14:50.487Z,42.80
2019-02-21T15:17:20.411Z,46.80
2019-02-21T15:19:50.316Z,49.30
2019-02-21T15:22:20.398Z,51.07
2019-02-21T15:24:50.420Z,49.60
2019-02-21T15:27:20.413Z,49.47
2019-02-21T15:29:50.326Z,48.80
2019-02-21T15:32:20.355Z,52.07
2019-02-21T15:34:50.301Z,46.03
2019-02-21T15:37:20.243Z,50.50
2019-02-21T15:39:50.314Z,48.97
2019-02-21T15:42:20.943Z,46.00
2019-02-21T15:44:50.854Z,53.53
2019-02-21T15:47:20.819Z,51.80
2019-02-21T15:49:50.788Z,47.80
2019-02-21T15:52:22.507Z,55.07
2019-02-21T15:54:52.371Z,38.87
2019-02-21T15:57:22.378Z,41.93
2019-02-21T15:59:52.373Z,34.30
2019-02-21T16:02:22.430Z,38.83
2019-02-21T16:04:52.322Z,35.93
2019-02-21T16:07:22.331Z,32.57
2019-02-21T16:09:52.273Z,32.87
2019-02-21T16:12:22.500Z,34.33
2019-02-21T16:14:52.950Z,31.17
2019-02-21T16:17:22.953Z,29.10
2019-02-21T16:19:52.932Z,27.70
2019-02-21T16:22:22.860Z,30.60
2019-02-21T16:24:52.890Z,30.10
2019-02-21T16:27:22.901Z,34.70
2019-02-21T16:29:52.877Z,30.53
2019-02-21T16:32:22.813Z,29.63
2019-02-21T16:34:52.842Z,32.93
2019-02-21T16:37:22.757Z,28.73
2019-02-21T16:39:52.699Z,29.40
2019-02-21T16:42:22.646Z,30.10
2019-02-21T16:44:52.540Z,35.90
2019-02-21T16:47:22.672Z,35.90
2019-02-21T16:49:52.584Z,29.70
2019-02-21T16:52:22.602Z,41.97
2019-02-21T16:54:52.504Z,33.63
2019-02-21T16:57:22.428Z,35.27
2019-02-21T16:59:52.481Z,35.57
2019-02-21T17:02:22.499Z,33.83
2019-02-21T17:04:52.481Z,37.57
2019-02-21T17:07:22.617Z,35.17
2019-02-21T17:09:52.540Z,33.80
2019-02-21T17:12:22.701Z,41.07
2019-02-21T17:14:52.608Z,39.90
2019-02-21T17:17:22.586Z,34.30
2019-02-21T17:19:52.526Z,40.15
2019-02-21T17:22:23.629Z,40.37
2019-02-21T17:24:53.851Z,30.70
2019-02-21T17:27:23.720Z,41.37
2019-02-21T17:29:53.663Z,41.07
2019-02-21T17:32:23.591Z,34.83
2019-02-21T17:34:54.099Z,41.20
2019-02-21T17:37:25.192Z,40.80
2019-02-21T17:39:57.656Z,38.60
2019-02-21T17:42:27.831Z,42.40
2019-02-21T17:44:57.800Z,40.60
2019-02-21T17:47:27.716Z,39.97
2019-02-21T17:49:57.647Z,42.13
2019-02-21T17:52:27.733Z,37.83
2019-02-21T17:54:57.680Z,42.80
2019-02-21T17:57:27.807Z,42.93
2019-02-21T17:59:57.813Z,47.63
2019-02-21T18:02:27.916Z,47.93
2019-02-21T18:04:57.824Z,42.77
2019-02-21T18:07:36.011Z,43.87
2019-02-21T18:09:59.355Z,45.50
2019-02-21T18:12:29.348Z,42.20
2019-02-21T18:14:59.359Z,41.77
2019-02-21T18:17:29.389Z,45.97
2019-02-21T18:19:59.310Z,42.63
2019-02-21T18:22:29.228Z,39.60
2019-02-21T18:24:59.261Z,37.40
2019-02-21T18:27:29.181Z,41.13
2019-02-21T18:29:59.142Z,43.50
2019-02-21T18:32:29.083Z,41.43
2019-02-21T18:34:59.109Z,44.83
2019-02-21T18:37:29.019Z,51.50
2019-02-21T18:39:59.157Z,46.47
2019-02-21T18:42:29.080Z,37.80
2019-02-21T18:44:59.094Z,45.37
2019-02-21T18:47:29.020Z,42.77
2019-02-21T18:49:59.016Z,45.37
2019-02-21T18:52:29.412Z,36.23
2019-02-21T18:54:59.438Z,43.13
2019-02-21T18:57:29.606Z,43.60
2019-02-21T18:59:59.598Z,45.92
2019-02-21T19:02:29.618Z,45.27
2019-02-21T19:04:59.640Z,46.70
2019-02-21T19:07:29.628Z,51.40
2019-02-21T19:09:59.616Z,49.00
2019-02-21T19:12:29.645Z,47.60
2019-02-21T19:14:59.588Z,44.60
2019-02-21T19:17:29.584Z,45.60
2019-02-21T19:19:59.780Z,43.67
2019-02-21T19:22:29.891Z,42.67
2019-02-21T19:25:00.010Z,47.80
2019-02-21T19:27:36.918Z,45.23
2019-02-21T19:30:01.544Z,46.47
2019-02-21T19:32:31.521Z,45.10
2019-02-21T19:35:01.462Z,39.83
2019-02-21T19:37:31.551Z,46.97
2019-02-21T19:40:01.553Z,40.90
2019-02-21T19:42:31.622Z,48.37
2019-02-21T19:45:01.553Z,43.87
2019-02-21T19:47:31.556Z,38.50
2019-02-21T19:50:01.594Z,47.73
2019-02-21T19:52:32.090Z,46.60
2019-02-21T19:55:02.339Z,41.77
2019-02-21T19:57:32.259Z,46.60
2019-02-21T20:00:02.254Z,45.60
2019-02-21T20:02:32.265Z,39.43
2019-02-21T20:05:02.850Z,45.13
2019-02-21T20:07:32.730Z,40.87
2019-02-21T20:10:02.730Z,39.73
2019-02-21T20:12:32.747Z,40.00
2019-02-21T20:15:02.703Z,43.27
2019-02-21T20:17:32.645Z,43.33
2019-02-21T20:20:02.678Z,38.90
2019-02-21T20:22:32.604Z,34.73
2019-02-21T20:25:02.613Z,37.80
2019-02-21T20:27:32.545Z,34.20
2019-02-21T20:30:02.629Z,33.47
2019-02-21T20:32:32.557Z,39.60
2019-02-21T20:35:02.483Z,37.63
2019-02-21T20:37:32.395Z,40.10
2019-02-21T20:40:02.306Z,35.87
2019-02-21T20:42:32.272Z,36.83
2019-02-21T20:45:02.341Z,38.30
2019-02-21T20:47:32.264Z,38.70
2019-02-21T20:50:02.313Z,41.50
2019-02-21T20:52:32.393Z,44.93
2019-02-21T20:55:02.336Z,42.90
2019-02-21T20:57:32.269Z,46.70
2019-02-21T21:00:02.210Z,60.23
2019-02-21T21:02:32.197Z,48.00
2019-02-21T21:05:02.153Z,46.17
2019-02-21T21:07:32.622Z,52.47
2019-02-21T21:10:02.658Z,52.27
2019-02-21T21:12:32.644Z,53.30
2019-02-21T21:15:02.552Z,54.90
2019-02-21T21:17:32.584Z,56.90
2019-02-21T21:20:02.483Z,54.63
2019-02-21T21:22:32.603Z,56.30
2019-02-21T21:25:02.605Z,51.67
2019-02-21T21:27:32.844Z,50.23
2019-02-21T21:30:02.791Z,64.30
2019-02-21T21:32:32.745Z,61.20
2019-02-21T21:35:02.647Z,56.07
2019-02-21T21:37:32.568Z,58.20
2019-02-21T21:40:02.572Z,55.17
2019-02-21T21:42:32.596Z,61.03
2019-02-21T21:45:02.585Z,60.57
2019-02-21T21:47:32.555Z,62.13
2019-02-21T21:50:02.691Z,59.17
2019-02-21T21:52:32.631Z,52.00
2019-02-21T21:55:02.682Z,54.00
2019-02-21T21:57:32.714Z,60.30
2019-02-21T22:00:02.701Z,58.03
2019-02-21T22:02:32.713Z,62.03
2019-02-21T22:05:02.793Z,60.73
2019-02-21T22:07:32.804Z,54.83
2019-02-21T22:10:02.791Z,53.23
2019-02-21T22:12:32.734Z,57.20
2019-02-21T22:15:02.655Z,61.03
2019-02-21T22:17:32.679Z,56.57
2019-02-21T22:20:02.591Z,60.20
2019-02-21T22:22:32.628Z,60.50
2019-02-21T22:25:02.606Z,58.97
2019-02-21T22:27:32.545Z,62.67
2019-02-21T22:30:02.571Z,63.00
2019-02-21T22:32:32.483Z,61.23
2019-02-21T22:35:02.396Z,61.50
2019-02-21T22:37:32.401Z,63.33
2019-02-21T22:40:02.468Z,61.83
2019-02-21T22:42:32.453Z,62.03
2019-02-21T22:45:02.364Z,63.07
2019-02-21T22:47:32.326Z,65.43
2019-02-21T22:50:02.251Z,62.80
2019-02-21T22:52:32.183Z,62.40
2019-02-21T22:55:09.883Z,58.70
2019-02-21T22:57:33.908Z,71.20
2019-02-21T23:00:05.995Z,63.90
2019-02-21T23:02:35.909Z,63.57
2019-02-21T23:05:38.306Z,63.90
2019-02-21T23:08:50.845Z,62.40
2019-02-21T23:11:20.935Z,62.17
2019-02-21T23:13:51.266Z,66.40
2019-02-21T23:16:21.253Z,75.37
2019-02-21T23:18:51.164Z,60.63
2019-02-21T23:21:20.648Z,67.37
2019-02-21T23:23:50.766Z,65.83
2019-02-21T23:26:20.745Z,60.73
2019-02-21T23:28:50.696Z,56.03
2019-02-21T23:31:21.052Z,55.07
2019-02-21T23:33:54.557Z,61.17
2019-02-21T23:36:24.464Z,63.43
2019-02-21T23:38:54.562Z,62.43
2019-02-21T23:41:24.565Z,61.90
2019-02-21T23:43:54.487Z,64.60
2019-02-21T23:46:24.491Z,62.30
2019-02-21T23:48:54.430Z,67.47
2019-02-21T23:51:24.332Z,56.53
2019-02-21T23:54:02.705Z,52.23
2019-02-21T23:56:25.935Z,54.27
2019-02-21T23:58:55.974Z,52.00
